Time;durP1;ratioP1;P1;durP2;ratioP2;P2;SDS_P1;SDS_P2;PMS_P1;PMS_P2;Temp;Humidity;BMP_temperature;BMP_pressure;BME280_temperature;BME280_humidity;BME280_pressure;Samples;Min_cycle;Max_cycle;Signal;HPM_P1;HPM_P2
2023/12/09 00:01:42;;;;;;;41.65;16.90;;;7.10;99.90;;;;;;5074147;28;20033;-72
2023/12/09 00:04:07;;;;;;;48.72;18.35;;;6.90;99.90;;;;;;5074513;28;20137;-72
2023/12/09 00:06:34;;;;;;;52.90;17.60;;;7.10;99.90;;;;;;5075221;28;20040;-72
2023/12/09 00:09:06;;;;;;;51.97;15.88;;;7.00;99.90;;;;;;5073993;28;20067;-72
2023/12/09 00:11:31;;;;;;;55.17;17.67;;;7.00;99.90;;;;;;5074948;28;20036;-72
2023/12/09 00:14:03;;;;;;;47.42;15.35;;;7.00;99.90;;;;;;5073492;28;20480;-72
2023/12/09 00:16:29;;;;;;;41.08;15.43;;;7.10;99.90;;;;;;5072626;28;20566;-72
2023/12/09 00:18:56;;;;;;;40.58;16.67;;;7.00;99.90;;;;;;5073572;28;20059;-71
2023/12/09 00:21:21;;;;;;;38.30;14.95;;;7.00;99.90;;;;;;5073213;28;20127;-72
2023/12/09 00:23:47;;;;;;;38.88;15.77;;;7.00;99.90;;;;;;5072957;28;20516;-72
2023/12/09 00:26:12;;;;;;;47.63;16.05;;;7.10;99.90;;;;;;5074260;28;20048;-72
2023/12/09 00:28:38;;;;;;;47.85;18.75;;;7.00;99.90;;;;;;5073612;28;20048;-73
2023/12/09 00:31:04;;;;;;;47.53;17.02;;;7.00;99.90;;;;;;5072083;28;20127;-72
2023/12/09 00:33:29;;;;;;;;;;;7.10;99.90;;;;;;5073702;28;20044;-72
2023/12/09 00:35:55;;;;;;;51.28;18.67;;;6.90;99.90;;;;;;5073567;28;19994;-72
2023/12/09 00:38:20;;;;;;;45.05;16.42;;;7.00;99.90;;;;;;5072592;28;20045;-72
2023/12/09 00:40:46;;;;;;;;;;;7.10;99.90;;;;;;5090976;28;20068;-71
2023/12/09 00:43:12;;;;;;;37.63;14.90;;;7.00;99.90;;;;;;5092478;28;20046;-72
2023/12/09 00:45:37;;;;;;;;;;;7.00;99.90;;;;;;5093370;28;20044;-72
2023/12/09 00:48:04;;;;;;;37.33;16.15;;;7.00;99.90;;;;;;5080992;28;20010;-72
2023/12/09 00:50:29;;;;;;;38.17;14.15;;;7.00;99.90;;;;;;5073602;28;20041;-72
2023/12/09 00:52:57;;;;;;;42.10;15.57;;;6.90;99.90;;;;;;5072858;28;20047;-72
2023/12/09 00:55:23;;;;;;;42.20;15.85;;;7.00;99.90;;;;;;5072644;28;20098;-72
2023/12/09 00:57:49;;;;;;;43.92;16.95;;;7.10;99.90;;;;;;5071937;28;20053;-72
2023/12/09 01:00:20;;;;;;;50.20;17.13;;;7.00;99.90;;;;;;5072361;28;20097;-72
2023/12/09 01:02:46;;;;;;;53.42;17.02;;;7.00;99.90;;;;;;5072116;28;20085;-72
2023/12/09 01:05:11;;;;;;;44.13;15.55;;;7.00;99.90;;;;;;5071396;28;20075;-72
2023/12/09 01:07:37;;;;;;;;;;;7.00;99.90;;;;;;5073791;28;20511;-72
2023/12/09 01:10:03;;;;;;;49.40;16.02;;;6.90;99.90;;;;;;5076133;28;19920;-73
2023/12/09 01:12:30;;;;;;;45.20;14.40;;;6.80;99.90;;;;;;5071974;28;20048;-72
2023/12/09 01:14:58;;;;;;;37.63;15.07;;;6.80;99.90;;;;;;5072425;28;20048;-72
2023/12/09 01:17:24;;;;;;;44.42;16.10;;;6.80;99.90;;;;;;5072327;28;20040;-72
2023/12/09 01:19:50;;;;;;;44.80;14.68;;;6.60;99.90;;;;;;5078603;28;20055;-72
2023/12/09 01:22:15;;;;;;;47.90;15.93;;;6.60;99.90;;;;;;5093259;28;20067;-73
2023/12/09 01:24:41;;;;;;;52.03;16.73;;;6.80;99.90;;;;;;5093821;28;20040;-73
2023/12/09 01:27:06;;;;;;;42.47;15.05;;;6.50;99.90;;;;;;5091724;28;20036;-72
2023/12/09 01:29:32;;;;;;;;;;;6.40;99.90;;;;;;5090624;28;20066;-72
2023/12/09 01:31:58;;;;;;;46.58;17.38;;;6.40;99.90;;;;;;5072513;28;19967;-73
2023/12/09 01:34:23;;;;;;;43.30;15.02;;;6.40;99.90;;;;;;5073100;28;20048;-72
2023/12/09 01:36:49;;;;;;;39.15;14.98;;;6.40;99.90;;;;;;5072230;28;20142;-72
2023/12/09 01:39:15;;;;;;;40.97;15.55;;;6.50;99.90;;;;;;5070919;28;20087;-72
2023/12/09 01:41:41;;;;;;;44.38;14.48;;;6.50;99.90;;;;;;5089533;28;20058;-72
2023/12/09 01:44:06;;;;;;;35.35;14.45;;;6.60;99.90;;;;;;5091776;28;20468;-72
2023/12/09 01:46:35;;;;;;;;;;;6.60;99.90;;;;;;5091678;28;20051;-71
2023/12/09 01:49:01;;;;;;;38.70;13.75;;;6.60;99.90;;;;;;5093151;28;19927;-72
2023/12/09 01:51:28;;;;;;;41.53;15.63;;;6.60;99.90;;;;;;5109277;28;20040;-72
2023/12/09 01:53:54;;;;;;;43.03;12.75;;;6.70;99.90;;;;;;5091173;28;20139;-72
2023/12/09 01:56:24;;;;;;;43.90;15.90;;;6.70;99.90;;;;;;5078916;28;20123;-72
2023/12/09 01:58:49;;;;;;;33.65;13.38;;;6.70;99.90;;;;;;5071227;28;20094;-72
2023/12/09 02:01:15;;;;;;;37.95;13.82;;;6.80;99.90;;;;;;5070601;28;20040;-72
2023/12/09 02:03:41;;;;;;;;;;;6.80;99.90;;;;;;5072110;28;20050;-72
2023/12/09 02:06:07;;;;;;;39.40;12.55;;;6.90;99.90;;;;;;5071660;28;19921;-72
2023/12/09 02:08:35;;;;;;;;;;;6.90;99.90;;;;;;5071506;28;20052;-72
2023/12/09 02:11:19;;;;;;;40.05;13.32;;;7.00;99.90;;;;;;5071106;28;19969;-72
2023/12/09 02:13:54;;;;;;;34.13;11.52;;;7.10;99.90;;;;;;5071548;28;20049;-72
2023/12/09 02:16:42;;;;;;;33.95;12.48;;;7.10;99.90;;;;;;5070457;28;20043;-72
2023/12/09 02:19:12;;;;;;;35.20;12.48;;;7.10;99.90;;;;;;5072146;28;20451;-72
2023/12/09 02:22:16;;;;;;;41.45;13.23;;;7.20;99.90;;;;;;5071868;28;20080;-72
2023/12/09 02:24:44;;;;;;;36.03;11.95;;;7.20;99.90;;;;;;4994606;28;20042;-72
2023/12/09 02:27:18;;;;;;;35.53;13.32;;;7.20;99.90;;;;;;5010485;28;20038;-72
2023/12/09 02:29:53;;;;;;;37.65;13.48;;;7.30;99.90;;;;;;5035928;28;20061;-72
2023/12/09 02:32:23;;;;;;;30.05;10.00;;;7.20;99.90;;;;;;5071290;28;20173;-72
2023/12/09 02:34:50;;;;;;;27.67;10.90;;;7.30;99.90;;;;;;5071118;28;20064;-72
2023/12/09 02:37:17;;;;;;;38.33;12.27;;;7.30;99.90;;;;;;5070248;28;20048;-72
2023/12/09 02:39:43;;;;;;;31.73;11.77;;;7.20;99.90;;;;;;5077593;28;20047;-72
2023/12/09 02:42:10;;;;;;;32.95;11.82;;;7.20;99.90;;;;;;5090489;28;20048;-72
2023/12/09 02:44:36;;;;;;;40.38;13.23;;;7.00;99.90;;;;;;5090800;28;20048;-72
2023/12/09 02:47:02;;;;;;;29.35;11.77;;;6.90;99.90;;;;;;5092187;28;20120;-72
2023/12/09 02:49:28;;;;;;;35.92;11.55;;;6.90;99.90;;;;;;5088947;28;20684;-73
2023/12/09 02:51:56;;;;;;;41.60;11.60;;;7.50;99.90;;;;;;5072823;28;20476;-72
2023/12/09 02:54:22;;;;;;;32.95;12.77;;;6.80;99.90;;;;;;5091148;28;20040;-72
2023/12/09 02:56:47;;;;;;;27.55;10.63;;;6.70;99.90;;;;;;5090768;28;20051;-73
2023/12/09 02:59:13;;;;;;;;;;;6.70;99.90;;;;;;5093026;28;20483;-72
2023/12/09 03:01:38;;;;;;;41.42;12.73;;;6.60;99.90;;;;;;5092800;28;19920;-72
2023/12/09 03:04:04;;;;;;;21.75;10.38;;;6.60;99.90;;;;;;5089634;28;20484;-72
2023/12/09 03:06:29;;;;;;;;;;;6.50;99.90;;;;;;5091760;28;20048;-72
2023/12/09 03:08:55;;;;;;;34.50;11.70;;;6.70;99.90;;;;;;5090985;28;19920;-73
2023/12/09 03:11:21;;;;;;;41.80;12.52;;;6.40;99.90;;;;;;5092990;28;20051;-72
2023/12/09 03:13:46;;;;;;;31.17;10.32;;;6.30;99.90;;;;;;5094988;28;20052;-73
2023/12/09 03:16:12;;;;;;;34.20;11.10;;;6.40;99.90;;;;;;5094867;28;20040;-73
2023/12/09 03:18:37;;;;;;;;;;;6.50;99.90;;;;;;5094219;28;20503;-72
2023/12/09 03:21:06;;;;;;;36.33;10.90;;;6.60;99.90;;;;;;5091779;28;20400;-73
2023/12/09 03:23:32;;;;;;;42.53;13.55;;;6.70;99.90;;;;;;5074471;28;20048;-72
2023/12/09 03:25:57;;;;;;;25.60;10.75;;;6.80;99.90;;;;;;5074033;28;20099;-73
2023/12/09 03:28:23;;;;;;;32.70;12.18;;;6.80;99.90;;;;;;5073746;28;20047;-72
2023/12/09 03:30:49;;;;;;;29.40;13.27;;;6.90;99.90;;;;;;5075673;28;20053;-72
2023/12/09 03:33:14;;;;;;;;;;;7.00;99.90;;;;;;5073842;28;20087;-73
2023/12/09 03:35:40;;;;;;;27.48;12.32;;;6.90;99.90;;;;;;5074220;28;19921;-72
2023/12/09 03:38:05;;;;;;;39.30;14.23;;;6.90;99.90;;;;;;5073672;28;20063;-72
2023/12/09 03:40:31;;;;;;;;;;;7.00;99.90;;;;;;5073811;28;20076;-72
2023/12/09 03:42:56;;;;;;;37.13;12.05;;;7.10;99.90;;;;;;5074305;28;19920;-72
2023/12/09 03:45:22;;;;;;;37.20;11.80;;;7.30;99.90;;;;;;5073827;28;20087;-72
2023/12/09 03:47:48;;;;;;;;;;;7.10;99.90;;;;;;5075053;28;20051;-72
2023/12/09 03:50:13;;;;;;;39.60;13.30;;;7.10;99.90;;;;;;5085201;28;19920;-72
2023/12/09 03:52:39;;;;;;;;;;;7.10;99.90;;;;;;5094946;28;20048;-72
2023/12/09 03:55:06;;;;;;;40.00;12.93;;;7.10;99.90;;;;;;5093371;28;19920;-72
2023/12/09 03:57:32;;;;;;;36.58;12.63;;;7.10;99.90;;;;;;5094104;28;20044;-72
2023/12/09 04:00:03;;;;;;;29.60;10.23;;;7.10;99.90;;;;;;5093804;28;20144;-72
2023/12/09 04:02:29;;;;;;;30.20;12.48;;;7.20;99.90;;;;;;5094222;28;20040;-72
2023/12/09 04:04:54;;;;;;;29.65;10.35;;;7.20;99.90;;;;;;5075182;28;20036;-72
2023/12/09 04:07:20;;;;;;;23.52;9.13;;;7.50;99.90;;;;;;5072881;28;20472;-72
2023/12/09 04:09:48;;;;;;;31.40;12.15;;;7.20;99.90;;;;;;5073951;28;20047;-72
2023/12/09 04:12:14;;;;;;;36.38;10.73;;;7.20;99.90;;;;;;5073389;28;20495;-73
2023/12/09 04:14:39;;;;;;;26.35;10.25;;;7.20;99.90;;;;;;5073218;28;20113;-72
2023/12/09 04:17:05;;;;;;;20.52;8.40;;;7.40;99.90;;;;;;5073603;28;20044;-72
2023/12/09 04:19:31;;;;;;;38.70;10.65;;;7.20;99.90;;;;;;5073826;28;20052;-73
2023/12/09 04:21:56;;;;;;;35.25;10.38;;;7.10;99.90;;;;;;5072153;28;20484;-72
2023/12/09 04:24:22;;;;;;;;;;;7.10;99.90;;;;;;5073564;28;20127;-72
2023/12/09 04:26:47;;;;;;;36.33;10.90;;;8.10;99.90;;;;;;5073628;28;19958;-72
2023/12/09 04:29:13;;;;;;;25.45;10.45;;;7.10;99.90;;;;;;5088006;28;20046;-71
2023/12/09 04:31:39;;;;;;;;;;;7.20;99.90;;;;;;5093924;28;20472;-72
2023/12/09 04:34:05;;;;;;;30.13;10.02;;;7.20;99.90;;;;;;5094400;28;19973;-73
2023/12/09 04:36:31;;;;;;;31.90;10.23;;;7.20;99.90;;;;;;5092577;28;20539;-72
2023/12/09 04:38:57;;;;;;;26.13;9.68;;;7.20;99.90;;;;;;5093921;28;20131;-72
2023/12/09 04:41:22;;;;;;;35.97;10.90;;;7.10;99.90;;;;;;5092959;28;20052;-72
2023/12/09 04:43:48;;;;;;;31.42;9.85;;;7.70;99.90;;;;;;5092433;28;20127;-73
2023/12/09 04:46:13;;;;;;;25.67;9.93;;;7.10;99.90;;;;;;5094140;28;20114;-72
2023/12/09 04:48:39;;;;;;;;;;;7.10;99.90;;;;;;5100384;28;20400;-73
2023/12/09 04:51:05;;;;;;;23.70;10.23;;;7.10;99.90;;;;;;5073041;28;19943;-72
2023/12/09 04:53:30;;;;;;;27.05;10.02;;;7.20;99.90;;;;;;5072725;28;20048;-73
2023/12/09 04:55:56;;;;;;;23.85;8.98;;;7.20;99.90;;;;;;5072965;28;20048;-73
2023/12/09 04:58:22;;;;;;;;;;;7.50;99.90;;;;;;5077735;28;20485;-72
2023/12/09 05:00:47;;;;;;;22.13;7.10;;;7.40;99.90;;;;;;5078879;28;19935;-73
2023/12/09 05:03:13;;;;;;;20.90;8.48;;;7.20;99.90;;;;;;5070746;28;20550;-73
2023/12/09 05:05:38;;;;;;;;;;;7.20;99.90;;;;;;5073169;28;20048;-72
2023/12/09 05:08:04;;;;;;;23.08;9.85;;;7.10;99.90;;;;;;5072093;28;20372;-72
2023/12/09 05:10:29;;;;;;;;;;;7.00;99.90;;;;;;5071671;28;20040;-73
2023/12/09 05:12:55;;;;;;;22.42;8.23;;;7.00;99.90;;;;;;5072147;28;19931;-73
2023/12/09 05:15:21;;;;;;;21.15;8.35;;;6.90;99.90;;;;;;5071417;28;20074;-73
2023/12/09 05:17:47;;;;;;;;;;;7.00;99.90;;;;;;5069946;28;20056;-73
2023/12/09 05:20:13;;;;;;;19.73;6.63;;;7.00;99.90;;;;;;5070954;28;19920;-72
2023/12/09 05:22:38;;;;;;;26.38;8.30;;;7.00;99.90;;;;;;5070281;28;20145;-73
2023/12/09 05:25:04;;;;;;;;;;;7.50;99.90;;;;;;5073113;28;20039;-73
2023/12/09 05:27:30;;;;;;;20.90;6.70;;;7.00;99.90;;;;;;5069655;28;19916;-72
2023/12/09 05:29:58;;;;;;;18.38;8.45;;;6.90;99.90;;;;;;5071928;28;20082;-72
2023/12/09 05:32:24;;;;;;;25.77;7.38;;;7.00;99.90;;;;;;5070305;28;20476;-72
2023/12/09 05:34:49;;;;;;;30.05;8.10;;;7.00;99.90;;;;;;5069496;28;20056;-72
2023/12/09 05:37:15;;;;;;;22.42;7.45;;;7.00;99.90;;;;;;5070044;28;20052;-73
2023/12/09 05:39:41;;;;;;;18.73;7.13;;;6.90;99.90;;;;;;5071594;28;20047;-72
2023/12/09 05:42:06;;;;;;;;;;;7.10;99.90;;;;;;5072460;28;20449;-72
2023/12/09 05:44:37;;;;;;;24.10;7.55;;;7.00;99.90;;;;;;5087717;28;19916;-72
2023/12/09 05:47:06;;;;;;;23.38;8.63;;;6.90;99.90;;;;;;5091423;28;20040;-72
2023/12/09 05:49:31;;;;;;;22.00;8.50;;;6.80;99.90;;;;;;5092308;28;20040;-72
2023/12/09 05:51:57;;;;;;;25.27;7.55;;;6.80;99.90;;;;;;5091890;28;20043;-72
2023/12/09 05:54:22;;;;;;;;;;;6.90;99.90;;;;;;5092520;28;20044;-72
2023/12/09 05:56:51;;;;;;;23.67;7.72;;;7.40;99.90;;;;;;5071647;28;19967;-72
2023/12/09 05:59:17;;;;;;;23.17;7.18;;;7.20;99.90;;;;;;5088170;28;20044;-73
2023/12/09 06:01:43;;;;;;;18.13;7.07;;;6.90;99.90;;;;;;5070903;28;20048;-72
2023/12/09 06:04:08;;;;;;;23.77;8.27;;;7.00;99.90;;;;;;5076239;28;20411;-72
2023/12/09 06:06:34;;;;;;;20.02;7.50;;;7.00;99.90;;;;;;5070618;28;20115;-73
2023/12/09 06:09:00;;;;;;;21.40;8.25;;;7.10;99.90;;;;;;5072552;28;20161;-73
2023/12/09 06:11:25;;;;;;;27.27;8.50;;;6.80;99.90;;;;;;5072989;28;20509;-73
2023/12/09 06:13:51;;;;;;;27.73;8.27;;;6.80;99.90;;;;;;5070713;28;20131;-72
2023/12/09 06:16:18;;;;;;;15.55;7.30;;;6.80;99.90;;;;;;5071447;28;20044;-72
2023/12/09 06:18:44;;;;;;;25.15;8.93;;;6.80;99.90;;;;;;5079173;28;20040;-72
2023/12/09 06:21:19;;;;;;;24.42;8.75;;;6.70;99.90;;;;;;5091410;28;20036;-72
2023/12/09 06:23:44;;;;;;;21.23;8.90;;;6.90;99.90;;;;;;5105409;28;20044;-72
2023/12/09 06:26:10;;;;;;;18.52;8.25;;;6.70;99.90;;;;;;5090876;28;20050;-73
2023/12/09 06:28:38;;;;;;;23.33;9.23;;;6.60;99.90;;;;;;5090660;28;20062;-73
2023/12/09 06:31:04;;;;;;;27.25;9.23;;;6.50;99.90;;;;;;5091133;28;20076;-72
2023/12/09 06:33:33;;;;;;;28.60;9.10;;;6.40;99.90;;;;;;5079729;28;20040;-72
2023/12/09 06:35:59;;;;;;;24.92;10.02;;;6.30;99.90;;;;;;5070394;28;20495;-72
2023/12/09 06:38:25;;;;;;;27.00;10.18;;;6.30;99.90;;;;;;5071339;28;20048;-72
2023/12/09 06:40:51;;;;;;;25.85;8.75;;;6.20;99.90;;;;;;5071336;28;20048;-71
2023/12/09 06:43:17;;;;;;;17.92;9.32;;;6.20;99.90;;;;;;5071533;28;20136;-71
2023/12/09 06:45:42;;;;;;;22.15;9.45;;;6.20;99.90;;;;;;5073558;28;20055;-72
2023/12/09 06:48:08;;;;;;;23.48;9.35;;;6.20;99.90;;;;;;5076082;28;20056;-72
2023/12/09 06:50:33;;;;;;;22.20;9.13;;;6.20;99.90;;;;;;5074429;28;20068;-72
2023/12/09 06:53:00;;;;;;;21.25;9.57;;;6.30;99.90;;;;;;5074920;28;20074;-72
2023/12/09 06:55:26;;;;;;;20.75;8.73;;;6.30;99.90;;;;;;5075169;28;20056;-73
2023/12/09 06:57:52;;;;;;;21.58;10.02;;;6.20;99.90;;;;;;5074182;28;20044;-72
2023/12/09 07:00:20;;;;;;;25.50;10.23;;;6.90;99.90;;;;;;5074829;28;20079;-72
2023/12/09 07:02:46;;;;;;;29.20;10.60;;;6.20;99.90;;;;;;5075194;28;20055;-72
2023/12/09 07:05:15;;;;;;;24.10;11.05;;;6.20;99.90;;;;;;5074528;28;20040;-72
2023/12/09 07:07:41;;;;;;;39.58;11.57;;;6.20;99.90;;;;;;5075142;28;20137;-72
2023/12/09 07:10:07;;;;;;;21.80;8.82;;;6.10;99.90;;;;;;5073789;28;20500;-72
2023/12/09 07:12:33;;;;;;;31.02;10.77;;;6.20;99.90;;;;;;5081164;28;20387;-72
2023/12/09 07:14:59;;;;;;;26.13;10.73;;;7.60;99.90;;;;;;5094591;28;20040;-72
2023/12/09 07:17:27;;;;;;;;;;;6.20;99.90;;;;;;5092729;28;20044;-72
2023/12/09 07:19:54;;;;;;;28.73;11.73;;;6.30;99.90;;;;;;5094845;28;19967;-72
2023/12/09 07:22:20;;;;;;;28.40;10.25;;;6.90;99.90;;;;;;5077880;28;20051;-72
2023/12/09 07:24:46;;;;;;;29.75;10.98;;;6.20;99.90;;;;;;5073437;28;20396;-72
2023/12/09 07:27:15;;;;;;;32.25;11.25;;;6.20;99.90;;;;;;5092195;28;20179;-72
2023/12/09 07:29:40;;;;;;;20.80;7.85;;;6.20;99.90;;;;;;5074249;28;20480;-72
2023/12/09 07:32:06;;;;;;;28.65;10.07;;;6.30;99.90;;;;;;5072537;28;20052;-72
2023/12/09 07:34:32;;;;;;;28.27;10.32;;;6.30;99.90;;;;;;5075429;28;20037;-70
2023/12/09 07:36:58;;;;;;;31.10;9.45;;;6.40;99.90;;;;;;5054268;28;20068;-73
2023/12/09 07:39:23;;;;;;;;;;;6.40;99.90;;;;;;5082342;28;20457;-72
2023/12/09 07:41:51;;;;;;;21.58;9.77;;;6.40;99.90;;;;;;5072732;28;19928;-71
2023/12/09 07:44:20;;;;;;;24.33;9.68;;;6.40;99.90;;;;;;5069766;28;20040;-72
2023/12/09 07:46:50;;;;;;;25.10;10.35;;;6.60;99.90;;;;;;5104504;28;20104;-71
2023/12/09 07:49:16;;;;;;;25.58;9.32;;;6.60;99.90;;;;;;5073896;28;20385;-71
2023/12/09 07:51:42;;;;;;;19.88;9.18;;;6.70;99.90;;;;;;5081101;28;20047;-71
2023/12/09 07:54:07;;;;;;;22.13;8.65;;;6.70;99.90;;;;;;5080166;28;20048;-70
2023/12/09 07:56:33;;;;;;;24.95;10.35;;;6.70;99.90;;;;;;5073516;28;20113;-70
2023/12/09 07:58:58;;;;;;;;;;;7.20;99.90;;;;;;5080856;28;20051;-70
2023/12/09 08:01:25;;;;;;;34.00;8.98;;;6.70;99.90;;;;;;5080842;28;19943;-71
2023/12/09 08:03:51;;;;;;;23.73;9.88;;;6.70;99.90;;;;;;5075647;28;20407;-78
2023/12/09 08:06:17;;;;;;;24.17;8.65;;;6.90;99.90;;;;;;5074107;28;20055;-75
2023/12/09 08:08:42;;;;;;;20.05;8.13;;;6.70;99.90;;;;;;5073337;28;20044;-73
2023/12/09 08:11:08;;;;;;;21.45;9.45;;;6.80;99.90;;;;;;5073651;28;20048;-74
2023/12/09 08:13:33;;;;;;;25.50;10.32;;;6.90;99.90;;;;;;5072750;28;20388;-75
2023/12/09 08:15:59;;;;;;;;;;;6.80;99.90;;;;;;5073947;28;20045;-77
2023/12/09 08:18:25;;;;;;;24.85;8.05;;;7.00;99.90;;;;;;5074076;28;20371;-82
2023/12/09 08:20:52;;;;;;;19.65;9.90;;;6.90;99.90;;;;;;5085740;28;20093;-74
2023/12/09 08:23:17;;;;;;;21.55;9.10;;;7.00;99.90;;;;;;5093217;28;20055;-73
2023/12/09 08:25:43;;;;;;;21.25;9.63;;;7.00;99.90;;;;;;5086152;28;20044;-80
2023/12/09 08:28:09;;;;;;;28.13;9.25;;;7.00;99.90;;;;;;5081999;28;20483;-75
2023/12/09 08:30:35;;;;;;;25.55;7.43;;;7.00;99.90;;;;;;5071798;28;20049;-76
2023/12/09 08:33:01;;;;;;;26.83;10.25;;;7.00;99.90;;;;;;5072254;28;20052;-77
2023/12/09 08:35:27;;;;;;;26.52;9.07;;;7.00;99.90;;;;;;5071951;28;20051;-74
2023/12/09 08:37:52;;;;;;;;;;;7.00;99.90;;;;;;5072234;28;20053;-74
2023/12/09 08:40:24;;;;;;;23.55;8.80;;;6.90;99.90;;;;;;5071662;28;19935;-74
2023/12/09 08:42:50;;;;;;;30.70;9.48;;;7.00;99.90;;;;;;5071015;28;20127;-75
2023/12/09 08:45:17;;;;;;;27.40;8.80;;;7.00;99.90;;;;;;5070671;28;20123;-75
2023/12/09 08:47:43;;;;;;;23.83;7.97;;;7.00;99.90;;;;;;5073629;28;20036;-73
2023/12/09 08:50:09;;;;;;;18.00;7.95;;;7.10;99.90;;;;;;5070087;28;20036;-73
2023/12/09 08:52:35;;;;;;;26.42;9.02;;;7.10;99.90;;;;;;5076812;28;20093;-73
2023/12/09 08:55:01;;;;;;;24.85;7.75;;;7.10;99.90;;;;;;5085624;28;20472;-74
2023/12/09 08:57:27;;;;;;;17.65;7.35;;;7.20;99.90;;;;;;5073040;28;20033;-74
2023/12/09 08:59:53;;;;;;;24.58;7.43;;;7.30;99.90;;;;;;5089562;28;20071;-71
2023/12/09 09:02:21;;;;;;;20.48;7.53;;;7.30;99.90;;;;;;5078440;28;20047;-71
2023/12/09 09:04:46;;;;;;;22.58;8.10;;;7.30;99.90;;;;;;5079293;28;20076;-71
2023/12/09 09:07:12;;;;;;;19.25;8.73;;;7.30;99.90;;;;;;5071891;28;20401;-69
2023/12/09 09:09:41;;;;;;;17.23;7.22;;;7.40;99.90;;;;;;5069702;28;20833;-69
2023/12/09 09:12:07;;;;;;;20.63;7.05;;;7.40;99.90;;;;;;5075384;28;20052;-72
2023/12/09 09:14:37;;;;;;;23.10;7.68;;;7.40;99.90;;;;;;5075476;28;20036;-72
2023/12/09 09:17:03;;;;;;;19.85;7.20;;;7.40;99.90;;;;;;5083333;28;20113;-76
2023/12/09 09:19:29;;;;;;;22.63;7.78;;;7.40;99.90;;;;;;5071201;28;20055;-74
2023/12/09 09:21:55;;;;;;;16.40;6.32;;;7.40;99.90;;;;;;5072605;28;20086;-73
2023/12/09 09:24:20;;;;;;;22.40;7.72;;;7.30;99.90;;;;;;5069860;28;20094;-74
2023/12/09 09:26:47;;;;;;;21.48;7.18;;;7.40;99.90;;;;;;5070186;28;20098;-73
2023/12/09 09:29:13;;;;;;;21.58;6.63;;;7.90;99.90;;;;;;5068982;28;20040;-72
2023/12/09 09:31:38;;;;;;;24.65;8.45;;;7.30;99.90;;;;;;5067905;28;20051;-71
2023/12/09 09:34:04;;;;;;;21.33;7.00;;;7.40;99.90;;;;;;5072353;28;20089;-71
2023/12/09 09:36:30;;;;;;;;;;;7.50;99.90;;;;;;5078174;28;20071;-69
2023/12/09 09:38:56;;;;;;;14.98;6.78;;;7.50;99.90;;;;;;5067291;28;19920;-71
2023/12/09 09:41:32;;;;;;;19.48;6.72;;;7.40;99.90;;;;;;5068594;28;20072;-70
2023/12/09 09:44:06;;;;;;;15.48;6.63;;;7.40;99.90;;;;;;5068555;28;20097;-69
2023/12/09 09:46:37;;;;;;;31.58;7.57;;;7.40;99.90;;;;;;5070135;28;20387;-70
2023/12/09 09:49:04;;;;;;;18.42;6.50;;;7.60;99.90;;;;;;5069053;28;20541;-70
2023/12/09 09:51:31;;;;;;;17.67;7.78;;;7.40;99.90;;;;;;5069390;28;20048;-70
2023/12/09 09:54:05;;;;;;;15.40;5.80;;;7.50;99.90;;;;;;5069667;28;20086;-70
2023/12/09 09:56:33;;;;;;;18.05;6.55;;;7.50;99.90;;;;;;5070082;28;20128;-70
2023/12/09 09:58:59;;;;;;;16.73;5.88;;;7.40;99.90;;;;;;5052704;28;20040;-70
2023/12/09 10:01:27;;;;;;;17.17;6.07;;;7.40;99.90;;;;;;5070757;28;20048;-70
2023/12/09 10:03:52;;;;;;;12.32;5.25;;;7.50;99.90;;;;;;5072611;28;20045;-70
2023/12/09 10:06:20;;;;;;;16.13;5.75;;;7.60;99.90;;;;;;5070299;28;20094;-69
2023/12/09 10:08:46;;;;;;;13.18;5.90;;;7.60;99.90;;;;;;5072112;28;20119;-71
2023/12/09 10:11:11;;;;;;;17.92;5.45;;;7.50;99.90;;;;;;5073405;28;20057;-72
2023/12/09 10:13:37;;;;;;;19.20;5.00;;;7.50;99.90;;;;;;5090812;28;20392;-70
2023/12/09 10:16:03;;;;;;;11.75;4.97;;;7.90;99.90;;;;;;5092501;28;20233;-70
2023/12/09 10:18:30;;;;;;;16.45;5.80;;;7.50;99.90;;;;;;5087828;28;20044;-73
2023/12/09 10:20:55;;;;;;;24.33;5.68;;;7.60;99.90;;;;;;5079489;28;20048;-74
2023/12/09 10:23:22;;;;;;;20.77;5.63;;;7.60;99.90;;;;;;5092741;28;20499;-74
2023/12/09 10:25:48;;;;;;;15.93;5.22;;;7.70;99.90;;;;;;5090894;28;20075;-75
2023/12/09 10:28:15;;;;;;;16.60;6.68;;;7.60;99.90;;;;;;5082174;28;20048;-74
2023/12/09 10:30:41;;;;;;;17.17;5.55;;;7.60;99.90;;;;;;5071615;28;20492;-75
2023/12/09 10:33:13;;;;;;;17.25;5.28;;;7.70;99.90;;;;;;5053276;28;20040;-72
2023/12/09 10:35:48;;;;;;;16.75;4.55;;;8.20;99.90;;;;;;5067789;28;20114;-72
2023/12/09 10:38:15;;;;;;;13.73;4.50;;;7.80;99.90;;;;;;5069583;28;20072;-70
2023/12/09 10:40:42;;;;;;;15.65;5.35;;;7.80;99.90;;;;;;5081323;28;20439;-78
2023/12/09 10:43:09;;;;;;;15.15;5.03;;;7.80;99.90;;;;;;5071755;28;20037;-76
2023/12/09 10:45:34;;;;;;;15.32;5.13;;;7.90;99.90;;;;;;5065920;28;20044;-72
2023/12/09 10:48:03;;;;;;;13.15;4.55;;;7.80;99.90;;;;;;5066384;28;20040;-77
2023/12/09 10:50:33;;;;;;;12.23;4.20;;;7.80;99.90;;;;;;5071588;28;20077;-71
2023/12/09 10:52:58;;;;;;;15.73;4.65;;;8.80;99.90;;;;;;5072316;28;20520;-75
2023/12/09 10:55:24;;;;;;;15.90;5.38;;;7.90;99.90;;;;;;5075869;28;20116;-74
2023/12/09 10:57:50;;;;;;;13.88;4.10;;;7.90;99.90;;;;;;5070491;28;20659;-71
2023/12/09 11:00:18;;;;;;;14.30;4.75;;;8.40;99.90;;;;;;5069753;28;20048;-72
2023/12/09 11:02:46;;;;;;;10.70;4.20;;;7.80;99.90;;;;;;5069406;28;20043;-70
2023/12/09 11:05:12;;;;;;;13.85;3.92;;;7.90;99.90;;;;;;5072640;28;20455;-75
2023/12/09 11:07:39;;;;;;;10.70;3.40;;;8.20;99.90;;;;;;5070649;28;20131;-73
2023/12/09 11:10:08;;;;;;;14.57;3.72;;;7.90;99.90;;;;;;5079242;28;20124;-77
2023/12/09 11:12:35;;;;;;;8.70;3.10;;;7.90;99.90;;;;;;5065716;28;20047;-75
2023/12/09 11:15:30;;;;;;;13.07;3.70;;;8.10;99.90;;;;;;5076478;28;20131;-81
2023/12/09 11:18:10;;;;;;;17.83;4.75;;;7.90;99.90;;;;;;5071137;28;20044;-74
2023/12/09 11:20:39;;;;;;;9.13;3.42;;;7.90;99.90;;;;;;5076758;28;20498;-74
2023/12/09 11:23:10;;;;;;;17.50;3.97;;;8.30;99.90;;;;;;5074458;28;20127;-79
2023/12/09 11:25:42;;;;;;;7.38;3.25;;;8.20;99.90;;;;;;5079496;28;20064;-77
2023/12/09 11:28:11;;;;;;;10.52;2.70;;;8.00;99.90;;;;;;5093551;28;20055;-75
2023/12/09 11:30:46;;;;;;;12.32;3.60;;;8.00;99.90;;;;;;5069441;28;20079;-76
2023/12/09 11:33:12;;;;;;;13.05;3.88;;;8.00;99.90;;;;;;5073615;28;20093;-80
2023/12/09 11:35:38;;;;;;;10.18;3.35;;;8.00;99.90;;;;;;5072967;28;20194;-79
2023/12/09 11:38:12;;;;;;;12.57;4.18;;;8.30;99.90;;;;;;5077595;28;20135;-80
2023/12/09 11:40:37;;;;;;;15.32;4.78;;;7.80;99.90;;;;;;5078483;28;20040;-78
2023/12/09 11:43:03;;;;;;;11.73;4.13;;;7.80;99.90;;;;;;5073237;28;20055;-78
2023/12/09 11:45:29;;;;;;;13.68;4.90;;;7.80;99.90;;;;;;5071777;28;20047;-77
2023/12/09 11:47:55;;;;;;;12.27;4.72;;;7.80;99.90;;;;;;5076128;28;20040;-75
2023/12/09 11:50:21;;;;;;;12.45;4.50;;;7.80;99.90;;;;;;5075708;28;20032;-72
2023/12/09 11:52:48;;;;;;;11.48;3.80;;;7.70;99.90;;;;;;5080584;28;20543;-77
2023/12/09 11:55:17;;;;;;;10.63;3.80;;;7.70;99.90;;;;;;5071805;28;20040;-72
2023/12/09 11:57:43;;;;;;;13.90;3.80;;;7.80;99.90;;;;;;5072301;28;20047;-74
2023/12/09 12:00:13;;;;;;;12.85;3.92;;;7.80;99.90;;;;;;5071897;28;20048;-74
2023/12/09 12:02:40;;;;;;;15.93;3.92;;;7.80;99.90;;;;;;5074763;28;20045;-73
2023/12/09 12:05:11;;;;;;;11.70;3.88;;;7.90;99.90;;;;;;5071931;28;20041;-87
2023/12/09 12:07:37;;;;;;;9.35;3.05;;;7.90;99.90;;;;;;5073484;28;20062;-79
2023/12/09 12:10:08;;;;;;;14.35;5.22;;;7.90;99.90;;;;;;5073933;28;20484;-73
2023/12/09 12:12:34;;;;;;;8.18;3.60;;;7.90;99.90;;;;;;5072941;28;20040;-74
2023/12/09 12:15:01;;;;;;;15.93;4.30;;;7.80;99.90;;;;;;5076199;28;20059;-73
2023/12/09 12:17:28;;;;;;;10.48;3.03;;;7.90;99.90;;;;;;5072280;28;20222;-72
2023/12/09 12:19:55;;;;;;;8.60;3.80;;;7.90;99.90;;;;;;5092559;28;20142;-80
2023/12/09 12:22:20;;;;;;;9.20;2.95;;;7.90;99.90;;;;;;5093222;28;20101;-72
2023/12/09 12:24:46;;;;;;;14.82;4.28;;;8.00;99.90;;;;;;5082660;28;20048;-73
2023/12/09 12:27:12;;;;;;;15.27;4.88;;;7.90;99.90;;;;;;5073799;28;20041;-71
2023/12/09 12:29:40;;;;;;;14.73;4.13;;;7.80;99.90;;;;;;5074752;28;20528;-73
2023/12/09 12:32:07;;;;;;;8.77;3.33;;;7.80;99.90;;;;;;5075908;28;20051;-74
2023/12/09 12:34:33;;;;;;;11.00;3.88;;;7.90;99.90;;;;;;5074369;28;20123;-73
2023/12/09 12:37:04;;;;;;;16.35;3.58;;;7.80;99.90;;;;;;5072978;28;20044;-74
2023/12/09 12:39:30;;;;;;;11.77;3.53;;;7.80;99.90;;;;;;5078524;28;20131;-75
2023/12/09 12:41:56;;;;;;;7.43;3.08;;;7.90;99.90;;;;;;5092869;28;20040;-74
2023/12/09 12:44:24;;;;;;;10.32;2.90;;;7.80;99.90;;;;;;5094606;28;20052;-74
2023/12/09 12:46:50;;;;;;;10.40;3.25;;;7.80;99.90;;;;;;5093627;28;20085;-75
2023/12/09 12:49:15;;;;;;;11.32;2.83;;;7.90;99.90;;;;;;5093193;28;20454;-75
2023/12/09 12:51:41;;;;;;;12.88;3.25;;;7.80;99.90;;;;;;5093225;28;20040;-75